KILN/ILN METAR and TAF weather

Enter ICAO airport designator
Station Type Date Time Source
KILN METAR 2019/08/25 19:54 UTC NOAA

KILN 251954Z AUTO 14009G16KT 090V160 10SM FEW045 24/15 A3008 RMK AO2 SLP182 T02440150


Station Type Date Time Source
KILN Decoded METAR 2019/08/25 19:54 UTC NOAA

Station name not available
Aug 25, 2019 - 03:54 PM EDT / 2019.08.25 1954 UTC
Wind: from the SE (140 degrees) at 10 MPH (9 KT) gusting to 18 MPH (16 KT) (direction variable):0
Visibility: 10 mile(s):0
Sky conditions: mostly clear
Temperature: 75.9 F (24.4 C)
Dew Point: 59.0 F (15.0 C)
Relative Humidity: 55%
Pressure (altimeter): 30.08 in. Hg (1018 hPa)
ob: KILN 251954Z AUTO 14009G16KT 090V160 10SM FEW045 24/15 A3008 RMK AO2 SLP182 T02440150
cycle: 20

Station Type Date Time Source
KILN TAF 2019/08/25 18:33 UTC NOAA

TAF KILN 251731Z 2518/2618 11008KT P6SM SCT250
FM252200 10007KT P6SM SCT250
FM260100 09006KT P6SM BKN250
FM260600 11008KT P6SM OVC250
FM261200 13008KT P6SM SCT050 OVC250
FM261400 14009KT P6SM -SHRA SCT025 OVC050
FM261500 14010G18KT 5SM -SHRA OVC015
TEMPO 2615/2618 2SM SHRA BR OVC008

Example: see airport list